createdAt,value
2019-01-20T00:00:19.871Z,8.47
2019-01-20T00:02:47.634Z,7.87
2019-01-20T00:05:15.956Z,8.17
2019-01-20T00:07:43.629Z,7.97
2019-01-20T00:10:11.469Z,8.87
2019-01-20T00:12:38.976Z,8.37
2019-01-20T00:15:07.272Z,8.13
2019-01-20T00:17:35.117Z,8.00
2019-01-20T00:20:03.802Z,7.70
2019-01-20T00:22:31.608Z,7.97
2019-01-20T00:24:59.175Z,7.73
2019-01-20T00:27:27.222Z,7.53
2019-01-20T00:29:55.331Z,7.83
2019-01-20T00:32:23.009Z,8.00
2019-01-20T00:34:50.570Z,7.13
2019-01-20T00:37:18.397Z,7.50
2019-01-20T00:39:45.999Z,7.40
2019-01-20T00:42:13.599Z,7.17
2019-01-20T00:44:41.536Z,7.40
2019-01-20T00:47:09.373Z,7.47
2019-01-20T00:49:37.292Z,8.53
2019-01-20T00:52:05.070Z,7.77
2019-01-20T00:54:32.737Z,7.00
2019-01-20T00:57:00.053Z,7.27
2019-01-20T00:59:27.611Z,6.83
2019-01-20T01:01:54.961Z,7.27
2019-01-20T01:04:22.416Z,7.23
2019-01-20T01:06:50.067Z,7.87
2019-01-20T01:09:17.734Z,7.80
2019-01-20T01:11:45.134Z,7.20
2019-01-20T01:14:12.934Z,8.03
2019-01-20T01:16:40.570Z,7.63
2019-01-20T01:19:08.625Z,8.03
2019-01-20T01:21:39.867Z,7.97
2019-01-20T01:24:07.890Z,6.70
2019-01-20T01:26:36.829Z,7.77
2019-01-20T01:29:04.452Z,7.00
2019-01-20T01:31:32.409Z,7.10
2019-01-20T01:33:59.800Z,6.57
2019-01-20T01:36:27.063Z,7.70
2019-01-20T01:38:55.264Z,7.87
2019-01-20T01:41:22.747Z,7.13
2019-01-20T01:43:50.246Z,7.47
2019-01-20T01:46:17.631Z,7.40
2019-01-20T01:48:45.791Z,7.70
2019-01-20T01:51:13.749Z,6.87
2019-01-20T01:53:41.119Z,7.20
2019-01-20T01:56:08.587Z,7.17
2019-01-20T01:58:35.716Z,7.50
2019-01-20T02:01:04.012Z,7.13
2019-01-20T02:03:31.636Z,6.47
2019-01-20T02:05:59.314Z,6.57
2019-01-20T02:08:27.374Z,7.30
2019-01-20T02:10:55.035Z,6.43
2019-01-20T02:13:23.464Z,6.37
2019-01-20T02:15:51.612Z,6.37
2019-01-20T02:18:19.244Z,6.53
2019-01-20T02:20:46.719Z,6.10
2019-01-20T02:23:14.209Z,6.30
2019-01-20T02:25:45.577Z,6.30
2019-01-20T02:28:12.962Z,7.40
2019-01-20T02:30:40.874Z,6.83
2019-01-20T02:33:08.876Z,7.00
2019-01-20T02:35:37.203Z,7.30
2019-01-20T02:38:05.010Z,6.03
2019-01-20T02:40:32.485Z,6.57
2019-01-20T02:42:59.730Z,5.80
2019-01-20T02:45:26.976Z,6.63
2019-01-20T02:47:54.364Z,5.83
2019-01-20T02:50:22.498Z,7.07
2019-01-20T02:52:50.548Z,6.60
2019-01-20T02:55:18.545Z,5.63
2019-01-20T02:57:46.615Z,5.73
2019-01-20T03:00:18.414Z,6.30
2019-01-20T03:02:46.010Z,5.63
2019-01-20T03:05:15.901Z,6.83
2019-01-20T03:07:43.270Z,6.67
2019-01-20T03:10:10.934Z,6.30
2019-01-20T03:12:38.967Z,7.43
2019-01-20T03:15:08.127Z,6.73
2019-01-20T03:17:36.089Z,6.70
2019-01-20T03:20:07.277Z,6.80
2019-01-20T03:22:35.220Z,6.73
2019-01-20T03:25:03.970Z,7.20
2019-01-20T03:27:31.448Z,7.50
2019-01-20T03:29:59.495Z,7.37
2019-01-20T03:32:26.764Z,6.23
2019-01-20T03:34:54.333Z,6.80
2019-01-20T03:37:21.997Z,7.72
2019-01-20T03:39:49.316Z,6.78
2019-01-20T03:42:16.506Z,7.57
2019-01-20T03:44:43.782Z,6.67
2019-01-20T03:47:11.403Z,6.60
2019-01-20T03:49:38.560Z,6.87
2019-01-20T03:52:06.432Z,6.73
2019-01-20T03:54:34.652Z,6.97
2019-01-20T03:57:02.416Z,6.77
2019-01-20T03:59:30.188Z,6.27
2019-01-20T04:01:57.462Z,6.73
2019-01-20T04:04:24.794Z,7.17
2019-01-20T04:06:52.205Z,6.70
2019-01-20T04:09:19.869Z,6.67
2019-01-20T04:11:50.513Z,7.67
2019-01-20T04:14:18.248Z,6.83
2019-01-20T04:16:45.779Z,7.23
2019-01-20T04:19:13.241Z,7.53
2019-01-20T04:21:40.825Z,6.40
2019-01-20T04:24:08.570Z,7.70
2019-01-20T04:26:36.954Z,7.28
2019-01-20T04:29:04.575Z,6.87
2019-01-20T04:31:32.835Z,7.03
2019-01-20T04:34:00.163Z,7.03
2019-01-20T04:36:28.173Z,6.70
2019-01-20T04:38:55.937Z,7.40
2019-01-20T04:41:23.309Z,7.57
2019-01-20T04:43:50.768Z,7.65
2019-01-20T04:46:18.271Z,7.27
2019-01-20T04:48:45.772Z,7.40
2019-01-20T04:51:13.254Z,5.97
2019-01-20T04:53:41.162Z,7.30
2019-01-20T04:56:09.213Z,7.97
2019-01-20T04:58:36.732Z,6.47
2019-01-20T05:01:04.493Z,7.13
2019-01-20T05:03:31.852Z,7.23
2019-01-20T05:05:59.242Z,7.27
2019-01-20T05:08:27.321Z,7.60
2019-01-20T05:10:55.306Z,6.67
2019-01-20T05:13:23.035Z,7.40
2019-01-20T05:15:54.443Z,8.05
2019-01-20T05:18:22.258Z,7.30
2019-01-20T05:20:49.918Z,7.08
2019-01-20T05:23:17.695Z,7.57
2019-01-20T05:25:45.074Z,6.97
2019-01-20T05:28:12.619Z,6.83
2019-01-20T05:30:40.961Z,7.90
2019-01-20T05:33:08.325Z,6.62
2019-01-20T05:35:35.627Z,7.58
2019-01-20T05:38:03.734Z,7.08
2019-01-20T05:40:31.063Z,7.62
2019-01-20T05:42:59.030Z,6.92
2019-01-20T05:45:26.464Z,8.43
2019-01-20T05:47:53.954Z,7.50
2019-01-20T05:50:21.653Z,6.75
2019-01-20T05:52:49.397Z,7.10
2019-01-20T05:55:16.840Z,7.40
2019-01-20T05:57:45.011Z,7.62
2019-01-20T06:00:38.405Z,6.72
2019-01-20T06:03:06.628Z,7.23
2019-01-20T06:05:34.711Z,7.53
2019-01-20T06:08:02.629Z,8.03
2019-01-20T06:10:30.389Z,7.43
2019-01-20T06:12:58.527Z,6.92
2019-01-20T06:15:26.337Z,6.80
2019-01-20T06:17:53.783Z,7.90
2019-01-20T06:20:22.567Z,7.55
2019-01-20T06:22:50.423Z,7.25
2019-01-20T06:25:18.357Z,7.97
2019-01-20T06:27:46.528Z,7.17
2019-01-20T06:30:18.109Z,8.30
2019-01-20T06:32:45.659Z,7.12
2019-01-20T06:35:13.925Z,8.20
2019-01-20T06:37:41.918Z,8.28
2019-01-20T06:40:09.543Z,7.53
2019-01-20T06:42:36.973Z,7.87
2019-01-20T06:45:05.657Z,8.00
2019-01-20T06:47:33.193Z,7.47
2019-01-20T06:50:00.468Z,7.83
2019-01-20T06:52:27.808Z,8.13
2019-01-20T06:54:55.473Z,8.18
2019-01-20T06:57:23.382Z,8.45
2019-01-20T06:59:51.440Z,6.10
2019-01-20T07:02:19.001Z,8.35
2019-01-20T07:04:46.680Z,8.23
2019-01-20T07:07:14.466Z,8.25
2019-01-20T07:09:42.479Z,8.75
2019-01-20T07:12:10.304Z,8.60
2019-01-20T07:14:37.498Z,7.83
2019-01-20T07:17:05.353Z,7.92
2019-01-20T07:19:33.063Z,7.58
2019-01-20T07:22:00.350Z,8.10
2019-01-20T07:24:27.694Z,8.13
2019-01-20T07:26:59.870Z,8.28
2019-01-20T07:29:30.780Z,7.65
2019-01-20T07:31:58.574Z,8.38
2019-01-20T07:34:27.524Z,8.65
2019-01-20T07:36:55.121Z,8.10
2019-01-20T07:39:23.480Z,8.58
2019-01-20T07:41:50.779Z,7.90
2019-01-20T07:44:20.499Z,8.70
2019-01-20T07:46:49.933Z,8.40
2019-01-20T07:49:17.221Z,7.83
2019-01-20T07:51:45.493Z,7.72
2019-01-20T07:54:13.067Z,8.33
2019-01-20T07:56:40.706Z,8.83
2019-01-20T07:59:08.311Z,9.80
2019-01-20T08:01:36.029Z,8.63
2019-01-20T08:04:03.756Z,9.30
2019-01-20T08:06:31.609Z,9.33
2019-01-20T08:08:58.994Z,9.77
2019-01-20T08:11:27.039Z,9.83
2019-01-20T08:13:54.822Z,9.07
2019-01-20T08:16:22.206Z,10.60
2019-01-20T08:18:50.310Z,10.57
2019-01-20T08:21:17.956Z,10.03
2019-01-20T08:23:45.955Z,10.77
2019-01-20T08:26:14.065Z,10.03
2019-01-20T08:28:42.779Z,10.67
2019-01-20T08:31:10.979Z,10.63
2019-01-20T08:33:39.451Z,10.23
2019-01-20T08:36:06.999Z,12.20
2019-01-20T08:38:34.633Z,10.63
2019-01-20T08:41:02.157Z,11.00
2019-01-20T08:43:31.967Z,10.90
2019-01-20T08:46:36.538Z,11.23
2019-01-20T08:49:04.495Z,11.83
2019-01-20T08:51:33.493Z,10.53
2019-01-20T08:54:00.753Z,10.70
2019-01-20T08:56:28.371Z,11.23
2019-01-20T08:58:56.423Z,11.93
2019-01-20T09:01:24.205Z,12.33
2019-01-20T09:03:53.859Z,11.87
2019-01-20T09:06:21.598Z,12.07
2019-01-20T09:08:49.901Z,13.27
2019-01-20T09:11:17.478Z,12.47
2019-01-20T09:13:45.809Z,12.00
2019-01-20T09:16:13.343Z,14.73
2019-01-20T09:18:41.353Z,17.17
2019-01-20T09:21:08.968Z,14.70
2019-01-20T09:23:37.043Z,14.87
2019-01-20T09:26:04.823Z,14.67
2019-01-20T09:28:32.333Z,13.50
2019-01-20T09:30:59.702Z,12.93
2019-01-20T09:33:27.185Z,12.03
2019-01-20T09:35:55.937Z,12.83
2019-01-20T09:38:24.026Z,12.73
2019-01-20T09:40:51.593Z,12.43
2019-01-20T09:43:19.137Z,12.00
2019-01-20T09:45:47.193Z,12.77
2019-01-20T09:48:15.107Z,12.43
2019-01-20T09:50:42.805Z,11.67
2019-01-20T09:53:10.491Z,12.33
2019-01-20T09:55:37.764Z,11.53
2019-01-20T09:58:11.277Z,11.90
2019-01-20T10:00:39.210Z,12.27
2019-01-20T10:03:07.279Z,11.33
2019-01-20T10:05:35.253Z,11.67
2019-01-20T10:08:04.403Z,12.57
2019-01-20T10:10:36.064Z,11.43
2019-01-20T10:13:10.387Z,11.23
2019-01-20T10:15:37.954Z,11.67
2019-01-20T10:18:08.072Z,11.40
2019-01-20T10:20:35.854Z,11.03
2019-01-20T10:23:05.000Z,11.57
2019-01-20T10:25:32.538Z,11.77
2019-01-20T10:27:59.791Z,11.13
2019-01-20T10:30:32.707Z,11.77
2019-01-20T10:33:00.811Z,11.13
2019-01-20T10:35:52.469Z,11.53
2019-01-20T10:38:22.240Z,11.97
2019-01-20T10:40:50.005Z,11.07
2019-01-20T10:43:17.717Z,11.53
2019-01-20T10:45:45.426Z,11.13
2019-01-20T10:48:13.206Z,11.50
2019-01-20T10:50:41.253Z,12.37
2019-01-20T10:53:09.319Z,12.27
2019-01-20T10:55:36.882Z,11.43
2019-01-20T10:58:07.911Z,11.03
2019-01-20T11:00:38.229Z,10.93
2019-01-20T11:03:06.615Z,11.10
2019-01-20T11:05:34.582Z,11.80
2019-01-20T11:08:02.511Z,11.37
2019-01-20T11:10:30.340Z,11.40
2019-01-20T11:12:58.915Z,11.67
2019-01-20T11:15:26.423Z,11.93
2019-01-20T11:17:54.884Z,11.10
2019-01-20T11:20:23.130Z,11.07
2019-01-20T11:22:51.261Z,11.13
2019-01-20T11:25:23.181Z,11.73
2019-01-20T11:27:50.691Z,11.17
2019-01-20T11:30:18.959Z,11.60
2019-01-20T11:32:47.065Z,12.27
2019-01-20T11:35:18.617Z,12.60
2019-01-20T11:37:47.229Z,12.33
2019-01-20T11:40:14.744Z,11.47
2019-01-20T11:42:42.846Z,11.73
2019-01-20T11:45:18.850Z,11.53
2019-01-20T11:47:47.033Z,11.47
2019-01-20T11:50:15.484Z,11.83
2019-01-20T11:52:44.133Z,12.03
2019-01-20T11:55:15.250Z,12.30
2019-01-20T11:57:43.581Z,11.90
2019-01-20T12:00:30.583Z,12.07
2019-01-20T12:03:03.185Z,12.03
2019-01-20T12:05:35.219Z,12.20
2019-01-20T12:08:05.185Z,11.73
2019-01-20T12:10:33.217Z,12.00
2019-01-20T12:13:04.210Z,11.30
2019-01-20T12:15:31.888Z,12.67
2019-01-20T12:17:59.554Z,11.53
2019-01-20T12:20:27.020Z,11.97
2019-01-20T12:22:57.439Z,12.33
2019-01-20T12:25:24.953Z,11.57
2019-01-20T12:27:52.544Z,11.70
2019-01-20T12:30:23.018Z,12.40
2019-01-20T12:32:51.099Z,13.17
2019-01-20T12:35:18.575Z,12.10
2019-01-20T12:37:46.982Z,12.27
2019-01-20T12:40:25.668Z,11.00
2019-01-20T12:42:53.458Z,12.80
2019-01-20T12:45:22.425Z,11.43
2019-01-20T12:47:50.674Z,12.47
2019-01-20T12:50:18.930Z,12.40
2019-01-20T12:52:46.802Z,11.73
2019-01-20T12:55:19.688Z,11.37
2019-01-20T12:57:47.796Z,11.60
2019-01-20T13:00:19.365Z,12.03
2019-01-20T13:02:46.995Z,11.73
2019-01-20T13:05:18.076Z,11.80
2019-01-20T13:07:46.626Z,11.83
2019-01-20T13:10:15.828Z,11.93
2019-01-20T13:12:43.895Z,11.67
2019-01-20T13:15:15.605Z,11.70
2019-01-20T13:17:43.133Z,11.70
2019-01-20T13:20:14.854Z,12.57
2019-01-20T13:22:42.357Z,11.50
2019-01-20T13:25:14.226Z,12.17
2019-01-20T13:27:42.557Z,12.00
2019-01-20T13:30:15.159Z,11.67
2019-01-20T13:32:42.938Z,11.53
2019-01-20T13:35:10.895Z,12.03
2019-01-20T13:37:42.316Z,11.37
2019-01-20T13:40:14.929Z,11.20
2019-01-20T13:42:42.634Z,10.37
2019-01-20T13:45:11.227Z,11.00
2019-01-20T13:47:48.693Z,11.60
2019-01-20T13:50:15.439Z,11.30
2019-01-20T13:52:43.294Z,11.43
2019-01-20T13:55:13.821Z,11.80
2019-01-20T13:57:41.596Z,10.57
2019-01-20T14:00:16.975Z,10.23
2019-01-20T14:02:46.972Z,12.13
2019-01-20T14:05:14.778Z,11.50
2019-01-20T14:07:44.312Z,12.20
2019-01-20T14:10:14.806Z,12.30
2019-01-20T14:12:42.074Z,11.07
2019-01-20T14:15:12.586Z,11.53
2019-01-20T14:17:40.842Z,10.80
2019-01-20T14:20:18.304Z,11.43
2019-01-20T14:22:47.810Z,10.60
2019-01-20T14:25:19.663Z,11.03
2019-01-20T14:27:47.410Z,11.13
2019-01-20T14:30:29.325Z,12.13
2019-01-20T14:32:56.789Z,11.07
2019-01-20T14:35:24.179Z,11.10
2019-01-20T14:37:52.265Z,11.80
2019-01-20T14:40:20.017Z,11.30
2019-01-20T14:42:47.621Z,11.87
2019-01-20T14:45:15.602Z,10.60
2019-01-20T14:47:43.121Z,11.20
2019-01-20T14:50:17.895Z,11.70
2019-01-20T14:52:45.582Z,11.13
2019-01-20T14:55:13.339Z,11.13
2019-01-20T14:57:40.883Z,10.77
2019-01-20T15:00:17.402Z,11.60
2019-01-20T15:02:44.841Z,10.47
2019-01-20T15:05:13.516Z,11.87
2019-01-20T15:07:41.299Z,11.10
2019-01-20T15:10:10.068Z,10.67
2019-01-20T15:12:37.716Z,11.37
2019-01-20T15:15:08.931Z,10.57
2019-01-20T15:17:36.301Z,11.53
2019-01-20T15:20:05.966Z,11.27
2019-01-20T15:22:33.865Z,11.33
2019-01-20T15:25:01.147Z,11.47
2019-01-20T15:27:28.490Z,10.70
2019-01-20T15:29:56.042Z,12.40
2019-01-20T15:32:24.434Z,11.47
2019-01-20T15:34:52.311Z,11.60
2019-01-20T15:37:20.071Z,10.53
2019-01-20T15:39:47.674Z,10.93
2019-01-20T15:42:15.914Z,11.47
2019-01-20T15:44:44.170Z,11.50
2019-01-20T15:47:12.008Z,10.33
2019-01-20T15:49:39.771Z,11.97
2019-01-20T15:52:07.266Z,13.07
2019-01-20T15:54:37.166Z,11.07
2019-01-20T15:57:04.691Z,10.67
2019-01-20T15:59:32.210Z,11.20
2019-01-20T16:01:59.728Z,10.97
2019-01-20T16:04:27.931Z,11.77
2019-01-20T16:06:55.568Z,11.77
2019-01-20T16:09:23.168Z,13.23
2019-01-20T16:11:51.168Z,12.50
2019-01-20T16:14:18.274Z,13.27
2019-01-20T16:16:45.884Z,13.00
2019-01-20T16:19:13.641Z,13.67
2019-01-20T16:21:42.681Z,14.27
2019-01-20T16:24:10.523Z,13.03
2019-01-20T16:26:39.018Z,13.43
2019-01-20T16:29:07.187Z,12.87
2019-01-20T16:31:39.774Z,14.33
2019-01-20T16:34:07.018Z,14.23
2019-01-20T16:36:34.659Z,14.53
2019-01-20T16:39:03.951Z,15.17
2019-01-20T16:41:31.188Z,14.03
2019-01-20T16:43:58.590Z,13.03
2019-01-20T16:46:26.292Z,15.27
2019-01-20T16:48:53.925Z,13.17
2019-01-20T16:51:36.443Z,14.73
2019-01-20T16:54:04.664Z,14.03
2019-01-20T16:56:32.497Z,14.27
2019-01-20T16:58:59.959Z,14.47
2019-01-20T17:01:27.424Z,13.40
2019-01-20T17:03:55.161Z,14.07
2019-01-20T17:06:23.037Z,14.20
2019-01-20T17:08:50.994Z,13.23
2019-01-20T17:11:18.254Z,13.40
2019-01-20T17:13:45.786Z,14.33
2019-01-20T17:16:13.177Z,15.40
2019-01-20T17:18:40.874Z,13.60
2019-01-20T17:21:09.543Z,14.43
2019-01-20T17:23:37.439Z,13.87
2019-01-20T17:26:05.045Z,15.20
2019-01-20T17:28:32.189Z,15.47
2019-01-20T17:30:59.806Z,15.07
2019-01-20T17:33:27.493Z,15.00
2019-01-20T17:35:55.423Z,14.43
2019-01-20T17:38:23.088Z,14.27
2019-01-20T17:40:50.725Z,14.37
2019-01-20T17:43:18.523Z,15.23
2019-01-20T17:45:48.596Z,13.50
2019-01-20T17:48:15.589Z,14.90
2019-01-20T17:50:44.242Z,14.60
2019-01-20T17:53:12.400Z,15.23
2019-01-20T17:55:40.412Z,14.97
2019-01-20T17:58:07.939Z,16.27
2019-01-20T18:00:39.136Z,16.47
2019-01-20T18:03:06.977Z,16.20
2019-01-20T18:05:35.169Z,18.10
2019-01-20T18:08:03.513Z,18.83
2019-01-20T18:10:30.979Z,20.00
2019-01-20T18:12:58.728Z,18.43
2019-01-20T18:15:26.401Z,18.77
2019-01-20T18:17:53.905Z,16.70
2019-01-20T18:20:24.338Z,16.70
2019-01-20T18:22:52.147Z,18.10
2019-01-20T18:25:20.464Z,16.97
2019-01-20T18:27:47.950Z,17.33
2019-01-20T18:30:20.453Z,17.53
2019-01-20T18:32:48.312Z,13.10
2019-01-20T18:35:15.796Z,17.37
2019-01-20T18:37:43.448Z,18.70
2019-01-20T18:40:14.612Z,18.37
2019-01-20T18:42:42.255Z,19.60
2019-01-20T18:45:12.888Z,16.00
2019-01-20T18:47:40.993Z,20.60
2019-01-20T18:50:11.415Z,20.03
2019-01-20T18:52:43.387Z,20.67
2019-01-20T18:55:12.201Z,18.60
2019-01-20T18:57:39.827Z,16.77
2019-01-20T19:00:18.758Z,18.13
2019-01-20T19:02:46.225Z,19.20
2019-01-20T19:05:14.648Z,19.23
2019-01-20T19:07:42.732Z,19.30
2019-01-20T19:10:12.497Z,19.30
2019-01-20T19:12:39.889Z,19.60
2019-01-20T19:15:09.697Z,21.77
2019-01-20T19:17:37.313Z,23.13
2019-01-20T19:20:07.708Z,21.27
2019-01-20T19:22:35.102Z,20.93
2019-01-20T19:25:05.319Z,20.90
2019-01-20T19:27:32.856Z,21.30
2019-01-20T19:30:00.877Z,22.00
2019-01-20T19:32:28.846Z,20.80
2019-01-20T19:34:56.407Z,20.53
2019-01-20T19:37:23.796Z,20.17
2019-01-20T19:39:51.845Z,21.07
2019-01-20T19:42:19.986Z,20.30
2019-01-20T19:44:47.693Z,20.53
2019-01-20T19:47:15.312Z,20.30
2019-01-20T19:49:43.789Z,20.97
2019-01-20T19:52:11.205Z,37.53
2019-01-20T19:54:38.840Z,22.97
2019-01-20T19:57:06.674Z,23.57
2019-01-20T19:59:34.029Z,22.60
2019-01-20T20:02:02.074Z,20.37
2019-01-20T20:04:29.867Z,19.90
2019-01-20T20:06:58.027Z,20.43
2019-01-20T20:09:26.320Z,21.53
2019-01-20T20:11:53.582Z,20.23
2019-01-20T20:14:21.141Z,20.80
2019-01-20T20:16:48.812Z,20.57
2019-01-20T20:19:16.058Z,21.73
2019-01-20T20:21:44.186Z,21.83
2019-01-20T20:24:11.735Z,22.27
2019-01-20T20:26:39.351Z,22.10
2019-01-20T20:29:06.906Z,23.13
2019-01-20T20:31:34.719Z,22.37
2019-01-20T20:34:02.094Z,21.07
2019-01-20T20:36:29.482Z,20.53
2019-01-20T20:38:57.413Z,23.10
2019-01-20T20:41:26.038Z,23.33
2019-01-20T20:43:53.788Z,21.10
2019-01-20T20:46:21.380Z,22.13
2019-01-20T20:48:48.640Z,22.47
2019-01-20T20:51:16.393Z,23.00
2019-01-20T20:53:44.078Z,21.90
2019-01-20T20:56:11.996Z,21.73
2019-01-20T20:58:39.825Z,22.40
2019-01-20T21:01:07.190Z,20.97
2019-01-20T21:03:37.460Z,21.13
2019-01-20T21:06:04.998Z,22.43
2019-01-20T21:08:32.897Z,20.57
2019-01-20T21:11:00.270Z,22.20
2019-01-20T21:13:27.891Z,21.40
2019-01-20T21:15:55.277Z,23.17
2019-01-20T21:18:22.649Z,22.67
2019-01-20T21:20:50.010Z,21.53
2019-01-20T21:23:19.012Z,21.47
2019-01-20T21:25:46.733Z,21.97
2019-01-20T21:28:14.599Z,21.47
2019-01-20T21:30:44.562Z,21.27
2019-01-20T21:33:12.360Z,20.67
2019-01-20T21:35:39.822Z,20.33
2019-01-20T21:38:07.393Z,19.37
2019-01-20T21:40:35.050Z,20.23
2019-01-20T21:43:03.503Z,19.93
2019-01-20T21:45:31.147Z,19.67
2019-01-20T21:47:58.659Z,19.53
2019-01-20T21:50:29.090Z,19.53
2019-01-20T21:52:57.126Z,26.67
2019-01-20T21:55:24.584Z,19.97
2019-01-20T21:57:52.621Z,20.53
2019-01-20T22:00:22.839Z,21.13
2019-01-20T22:02:50.891Z,21.73
2019-01-20T22:05:18.612Z,21.67
2019-01-20T22:07:46.850Z,21.90
2019-01-20T22:10:17.477Z,22.40
2019-01-20T22:12:44.988Z,20.80
2019-01-20T22:15:13.000Z,20.80
2019-01-20T22:17:40.618Z,21.00
2019-01-20T22:20:12.567Z,22.73
2019-01-20T22:22:40.480Z,19.77
2019-01-20T22:25:08.611Z,19.73
2019-01-20T22:27:36.031Z,19.93
2019-01-20T22:30:08.821Z,19.30
2019-01-20T22:32:35.964Z,19.13
2019-01-20T22:35:05.428Z,26.27
2019-01-20T22:37:33.403Z,23.93
2019-01-20T22:40:01.111Z,21.37
2019-01-20T22:42:28.958Z,21.47
2019-01-20T22:44:56.325Z,20.90
2019-01-20T22:47:24.093Z,21.27
2019-01-20T22:49:51.960Z,19.87
2019-01-20T22:52:19.743Z,18.27
2019-01-20T22:54:48.927Z,18.50
2019-01-20T22:57:17.564Z,18.83
2019-01-20T22:59:45.524Z,20.10
2019-01-20T23:02:13.088Z,18.80
2019-01-20T23:04:43.689Z,18.83
2019-01-20T23:07:12.308Z,19.43
2019-01-20T23:09:40.649Z,18.77
2019-01-20T23:12:08.462Z,17.57
2019-01-20T23:14:39.653Z,18.60
2019-01-20T23:17:07.919Z,17.23
2019-01-20T23:19:35.949Z,17.37
2019-01-20T23:22:04.248Z,17.77
2019-01-20T23:24:31.852Z,16.13
2019-01-20T23:26:59.431Z,17.63
2019-01-20T23:29:34.003Z,18.40
2019-01-20T23:32:11.873Z,17.00
2019-01-20T23:34:41.345Z,12.97
2019-01-20T23:37:10.253Z,17.33
2019-01-20T23:39:38.134Z,17.50
2019-01-20T23:42:05.758Z,16.80
2019-01-20T23:44:33.410Z,18.63
2019-01-20T23:47:00.665Z,17.87
2019-01-20T23:49:28.222Z,18.17
2019-01-20T23:51:55.961Z,18.17
2019-01-20T23:54:23.498Z,18.80
2019-01-20T23:56:51.232Z,18.43
2019-01-20T23:59:18.962Z,18.00
